sensor_id;sensor_type;location;lat;lon;timestamp;P1;durP1;ratioP1;P2;durP2;ratioP2
7181;SDS011;3632;42.724;23.298;2022-11-20T00:00:38;7.47;;;4.30;;
7181;SDS011;3632;42.724;23.298;2022-11-20T00:03:06;7.03;;;5.10;;
7181;SDS011;3632;42.724;23.298;2022-11-20T00:05:33;6.40;;;4.67;;
7181;SDS011;3632;42.724;23.298;2022-11-20T00:08:02;5.23;;;3.77;;
7181;SDS011;3632;42.724;23.298;2022-11-20T00:10:32;5.80;;;3.20;;
7181;SDS011;3632;42.724;23.298;2022-11-20T00:13:02;4.00;;;2.00;;
7181;SDS011;3632;42.724;23.298;2022-11-20T00:15:30;3.10;;;2.70;;
7181;SDS011;3632;42.724;23.298;2022-11-20T00:17:57;4.17;;;1.87;;
7181;SDS011;3632;42.724;23.298;2022-11-20T00:20:24;4.27;;;1.83;;
7181;SDS011;3632;42.724;23.298;2022-11-20T00:22:52;4.77;;;2.40;;
7181;SDS011;3632;42.724;23.298;2022-11-20T00:25:23;6.37;;;3.73;;
7181;SDS011;3632;42.724;23.298;2022-11-20T00:27:50;5.53;;;2.67;;
7181;SDS011;3632;42.724;23.298;2022-11-20T00:30:20;3.97;;;1.90;;
7181;SDS011;3632;42.724;23.298;2022-11-20T00:32:47;4.40;;;2.60;;
7181;SDS011;3632;42.724;23.298;2022-11-20T00:35:15;3.17;;;2.40;;
7181;SDS011;3632;42.724;23.298;2022-11-20T00:37:44;2.03;;;1.33;;
7181;SDS011;3632;42.724;23.298;2022-11-20T00:40:12;5.50;;;1.53;;
7181;SDS011;3632;42.724;23.298;2022-11-20T00:42:40;3.73;;;1.30;;
7181;SDS011;3632;42.724;23.298;2022-11-20T00:45:08;3.47;;;1.70;;
7181;SDS011;3632;42.724;23.298;2022-11-20T00:47:36;4.40;;;1.50;;
7181;SDS011;3632;42.724;23.298;2022-11-20T00:50:04;3.87;;;2.17;;
7181;SDS011;3632;42.724;23.298;2022-11-20T00:52:31;3.20;;;2.00;;
7181;SDS011;3632;42.724;23.298;2022-11-20T00:54:59;2.73;;;1.40;;
7181;SDS011;3632;42.724;23.298;2022-11-20T00:57:26;2.77;;;1.40;;
7181;SDS011;3632;42.724;23.298;2022-11-20T00:59:55;1.63;;;1.30;;
7181;SDS011;3632;42.724;23.298;2022-11-20T01:02:22;4.20;;;1.43;;
7181;SDS011;3632;42.724;23.298;2022-11-20T01:04:50;2.67;;;1.40;;
7181;SDS011;3632;42.724;23.298;2022-11-20T01:07:17;2.47;;;1.47;;
7181;SDS011;3632;42.724;23.298;2022-11-20T01:09:44;3.67;;;1.50;;
7181;SDS011;3632;42.724;23.298;2022-11-20T01:12:12;2.63;;;1.30;;
7181;SDS011;3632;42.724;23.298;2022-11-20T01:14:39;3.43;;;1.67;;
7181;SDS011;3632;42.724;23.298;2022-11-20T01:17:07;3.40;;;1.40;;
7181;SDS011;3632;42.724;23.298;2022-11-20T01:19:34;3.00;;;1.57;;
7181;SDS011;3632;42.724;23.298;2022-11-20T01:22:01;3.60;;;1.37;;
7181;SDS011;3632;42.724;23.298;2022-11-20T01:24:28;3.50;;;1.60;;
7181;SDS011;3632;42.724;23.298;2022-11-20T01:26:56;3.07;;;1.30;;
7181;SDS011;3632;42.724;23.298;2022-11-20T01:29:23;3.20;;;1.27;;
7181;SDS011;3632;42.724;23.298;2022-11-20T01:31:51;2.97;;;1.90;;
7181;SDS011;3632;42.724;23.298;2022-11-20T01:34:20;3.33;;;1.40;;
7181;SDS011;3632;42.724;23.298;2022-11-20T01:36:48;1.87;;;1.20;;
7181;SDS011;3632;42.724;23.298;2022-11-20T01:39:18;3.23;;;1.10;;
7181;SDS011;3632;42.724;23.298;2022-11-20T01:41:47;3.03;;;1.20;;
7181;SDS011;3632;42.724;23.298;2022-11-20T01:44:49;3.03;;;1.00;;
7181;SDS011;3632;42.724;23.298;2022-11-20T01:47:20;5.17;;;3.60;;
7181;SDS011;3632;42.724;23.298;2022-11-20T01:49:54;2.73;;;1.23;;
7181;SDS011;3632;42.724;23.298;2022-11-20T01:52:26;2.20;;;1.10;;
7181;SDS011;3632;42.724;23.298;2022-11-20T01:54:59;3.53;;;1.20;;
7181;SDS011;3632;42.724;23.298;2022-11-20T01:57:32;2.07;;;1.20;;
7181;SDS011;3632;42.724;23.298;2022-11-20T02:00:03;3.03;;;1.20;;
7181;SDS011;3632;42.724;23.298;2022-11-20T02:02:32;2.80;;;1.23;;
7181;SDS011;3632;42.724;23.298;2022-11-20T02:05:04;3.03;;;1.13;;
7181;SDS011;3632;42.724;23.298;2022-11-20T02:07:41;3.37;;;1.20;;
7181;SDS011;3632;42.724;23.298;2022-11-20T02:10:09;2.33;;;1.30;;
7181;SDS011;3632;42.724;23.298;2022-11-20T02:12:35;1.77;;;1.10;;
7181;SDS011;3632;42.724;23.298;2022-11-20T02:15:20;1.37;;;1.00;;
7181;SDS011;3632;42.724;23.298;2022-11-20T02:17:47;8.27;;;1.50;;
7181;SDS011;3632;42.724;23.298;2022-11-20T02:20:16;3.30;;;1.40;;
7181;SDS011;3632;42.724;23.298;2022-11-20T02:22:46;2.60;;;1.37;;
7181;SDS011;3632;42.724;23.298;2022-11-20T02:25:22;2.73;;;1.37;;
7181;SDS011;3632;42.724;23.298;2022-11-20T02:27:51;4.63;;;1.20;;
7181;SDS011;3632;42.724;23.298;2022-11-20T02:30:20;3.67;;;1.43;;
7181;SDS011;3632;42.724;23.298;2022-11-20T02:32:47;2.77;;;1.53;;
7181;SDS011;3632;42.724;23.298;2022-11-20T02:38:07;2.83;;;1.10;;
7181;SDS011;3632;42.724;23.298;2022-11-20T02:40:36;1.97;;;1.50;;
7181;SDS011;3632;42.724;23.298;2022-11-20T02:43:03;3.13;;;1.13;;
7181;SDS011;3632;42.724;23.298;2022-11-20T02:45:31;2.70;;;1.40;;
7181;SDS011;3632;42.724;23.298;2022-11-20T02:47:58;4.03;;;1.23;;
7181;SDS011;3632;42.724;23.298;2022-11-20T02:50:27;2.17;;;1.27;;
7181;SDS011;3632;42.724;23.298;2022-11-20T02:52:55;2.57;;;1.20;;
7181;SDS011;3632;42.724;23.298;2022-11-20T02:55:22;1.80;;;1.20;;
7181;SDS011;3632;42.724;23.298;2022-11-20T02:57:51;3.07;;;1.40;;
7181;SDS011;3632;42.724;23.298;2022-11-20T03:00:19;3.30;;;1.90;;
7181;SDS011;3632;42.724;23.298;2022-11-20T03:02:46;5.53;;;1.57;;
7181;SDS011;3632;42.724;23.298;2022-11-20T03:05:14;4.03;;;1.90;;
7181;SDS011;3632;42.724;23.298;2022-11-20T03:07:41;4.17;;;1.70;;
7181;SDS011;3632;42.724;23.298;2022-11-20T03:10:09;4.13;;;2.03;;
7181;SDS011;3632;42.724;23.298;2022-11-20T03:12:37;9.23;;;1.90;;
7181;SDS011;3632;42.724;23.298;2022-11-20T03:15:06;4.80;;;2.00;;
7181;SDS011;3632;42.724;23.298;2022-11-20T03:17:34;5.30;;;1.80;;
7181;SDS011;3632;42.724;23.298;2022-11-20T03:20:01;5.43;;;1.93;;
7181;SDS011;3632;42.724;23.298;2022-11-20T03:22:28;6.33;;;1.70;;
7181;SDS011;3632;42.724;23.298;2022-11-20T03:24:56;5.37;;;1.60;;
7181;SDS011;3632;42.724;23.298;2022-11-20T03:27:23;4.33;;;1.50;;
7181;SDS011;3632;42.724;23.298;2022-11-20T03:29:51;5.03;;;1.60;;
7181;SDS011;3632;42.724;23.298;2022-11-20T03:32:19;7.83;;;2.10;;
7181;SDS011;3632;42.724;23.298;2022-11-20T03:34:47;3.63;;;1.83;;
7181;SDS011;3632;42.724;23.298;2022-11-20T03:37:14;3.63;;;1.67;;
7181;SDS011;3632;42.724;23.298;2022-11-20T03:39:42;4.70;;;1.60;;
7181;SDS011;3632;42.724;23.298;2022-11-20T03:42:10;4.00;;;1.53;;
7181;SDS011;3632;42.724;23.298;2022-11-20T03:44:51;4.00;;;1.67;;
7181;SDS011;3632;42.724;23.298;2022-11-20T03:47:20;3.70;;;1.67;;
7181;SDS011;3632;42.724;23.298;2022-11-20T03:49:47;3.57;;;1.60;;
7181;SDS011;3632;42.724;23.298;2022-11-20T03:52:14;3.20;;;1.43;;
7181;SDS011;3632;42.724;23.298;2022-11-20T03:54:41;3.97;;;1.60;;
7181;SDS011;3632;42.724;23.298;2022-11-20T03:57:09;3.23;;;1.60;;
7181;SDS011;3632;42.724;23.298;2022-11-20T03:59:36;3.20;;;1.60;;
7181;SDS011;3632;42.724;23.298;2022-11-20T04:02:04;2.50;;;1.40;;
7181;SDS011;3632;42.724;23.298;2022-11-20T04:04:32;2.57;;;1.40;;
7181;SDS011;3632;42.724;23.298;2022-11-20T04:07:00;3.73;;;1.30;;
7181;SDS011;3632;42.724;23.298;2022-11-20T04:09:27;5.50;;;1.40;;
7181;SDS011;3632;42.724;23.298;2022-11-20T04:11:54;4.83;;;1.80;;
7181;SDS011;3632;42.724;23.298;2022-11-20T04:14:21;3.03;;;1.50;;
7181;SDS011;3632;42.724;23.298;2022-11-20T04:16:49;5.30;;;1.40;;
7181;SDS011;3632;42.724;23.298;2022-11-20T04:19:16;2.97;;;1.47;;
7181;SDS011;3632;42.724;23.298;2022-11-20T04:21:45;4.00;;;1.30;;
7181;SDS011;3632;42.724;23.298;2022-11-20T04:24:12;5.27;;;3.00;;
7181;SDS011;3632;42.724;23.298;2022-11-20T04:26:39;3.37;;;1.50;;
7181;SDS011;3632;42.724;23.298;2022-11-20T04:29:06;2.60;;;1.40;;
7181;SDS011;3632;42.724;23.298;2022-11-20T04:31:37;3.93;;;1.20;;
7181;SDS011;3632;42.724;23.298;2022-11-20T04:34:06;2.47;;;1.40;;
7181;SDS011;3632;42.724;23.298;2022-11-20T04:36:33;3.27;;;1.30;;
7181;SDS011;3632;42.724;23.298;2022-11-20T04:39:03;3.27;;;1.20;;
7181;SDS011;3632;42.724;23.298;2022-11-20T04:41:32;6.50;;;1.10;;
7181;SDS011;3632;42.724;23.298;2022-11-20T04:44:01;3.03;;;1.43;;
7181;SDS011;3632;42.724;23.298;2022-11-20T04:46:30;3.10;;;1.53;;
7181;SDS011;3632;42.724;23.298;2022-11-20T04:48:58;2.93;;;1.23;;
7181;SDS011;3632;42.724;23.298;2022-11-20T04:51:27;2.83;;;1.27;;
7181;SDS011;3632;42.724;23.298;2022-11-20T04:54:03;3.53;;;1.30;;
7181;SDS011;3632;42.724;23.298;2022-11-20T04:56:34;2.27;;;1.23;;
7181;SDS011;3632;42.724;23.298;2022-11-20T04:59:02;2.37;;;1.10;;
7181;SDS011;3632;42.724;23.298;2022-11-20T05:01:29;2.00;;;1.03;;
7181;SDS011;3632;42.724;23.298;2022-11-20T05:03:58;5.03;;;1.43;;
7181;SDS011;3632;42.724;23.298;2022-11-20T05:06:25;4.57;;;1.30;;
7181;SDS011;3632;42.724;23.298;2022-11-20T05:08:53;2.40;;;1.20;;
7181;SDS011;3632;42.724;23.298;2022-11-20T05:11:21;2.23;;;1.40;;
7181;SDS011;3632;42.724;23.298;2022-11-20T05:13:49;1.90;;;1.00;;
7181;SDS011;3632;42.724;23.298;2022-11-20T05:16:18;3.47;;;1.40;;
7181;SDS011;3632;42.724;23.298;2022-11-20T05:18:46;4.07;;;1.27;;
7181;SDS011;3632;42.724;23.298;2022-11-20T05:21:13;2.20;;;1.57;;
7181;SDS011;3632;42.724;23.298;2022-11-20T05:23:42;2.93;;;1.90;;
7181;SDS011;3632;42.724;23.298;2022-11-20T05:26:12;5.17;;;1.70;;
7181;SDS011;3632;42.724;23.298;2022-11-20T05:28:42;5.43;;;2.37;;
7181;SDS011;3632;42.724;23.298;2022-11-20T05:31:10;6.63;;;2.70;;
7181;SDS011;3632;42.724;23.298;2022-11-20T05:33:39;5.43;;;2.40;;
7181;SDS011;3632;42.724;23.298;2022-11-20T05:36:07;4.67;;;2.30;;
7181;SDS011;3632;42.724;23.298;2022-11-20T05:38:35;8.00;;;5.17;;
7181;SDS011;3632;42.724;23.298;2022-11-20T05:41:05;11.60;;;4.00;;
7181;SDS011;3632;42.724;23.298;2022-11-20T05:43:33;5.53;;;2.60;;
7181;SDS011;3632;42.724;23.298;2022-11-20T05:46:03;4.77;;;1.90;;
7181;SDS011;3632;42.724;23.298;2022-11-20T05:48:31;4.43;;;1.77;;
7181;SDS011;3632;42.724;23.298;2022-11-20T05:50:59;8.20;;;1.73;;
7181;SDS011;3632;42.724;23.298;2022-11-20T05:53:27;5.60;;;3.90;;
7181;SDS011;3632;42.724;23.298;2022-11-20T05:55:57;2.73;;;2.13;;
7181;SDS011;3632;42.724;23.298;2022-11-20T05:58:25;5.40;;;2.53;;
7181;SDS011;3632;42.724;23.298;2022-11-20T06:00:53;3.47;;;1.93;;
7181;SDS011;3632;42.724;23.298;2022-11-20T06:03:22;3.10;;;1.57;;
7181;SDS011;3632;42.724;23.298;2022-11-20T06:05:49;3.53;;;1.50;;
7181;SDS011;3632;42.724;23.298;2022-11-20T06:08:16;3.13;;;1.67;;
7181;SDS011;3632;42.724;23.298;2022-11-20T06:10:44;3.00;;;1.73;;
7181;SDS011;3632;42.724;23.298;2022-11-20T06:13:11;2.70;;;1.90;;
7181;SDS011;3632;42.724;23.298;2022-11-20T06:15:38;2.50;;;1.40;;
7181;SDS011;3632;42.724;23.298;2022-11-20T06:18:06;2.17;;;1.70;;
7181;SDS011;3632;42.724;23.298;2022-11-20T06:20:35;9.80;;;6.37;;
7181;SDS011;3632;42.724;23.298;2022-11-20T06:23:02;7.27;;;4.40;;
7181;SDS011;3632;42.724;23.298;2022-11-20T06:25:30;3.90;;;2.37;;
7181;SDS011;3632;42.724;23.298;2022-11-20T06:28:00;3.40;;;1.57;;
7181;SDS011;3632;42.724;23.298;2022-11-20T06:30:27;4.13;;;1.90;;
7181;SDS011;3632;42.724;23.298;2022-11-20T06:32:54;4.07;;;1.83;;
7181;SDS011;3632;42.724;23.298;2022-11-20T06:35:21;5.27;;;2.70;;
7181;SDS011;3632;42.724;23.298;2022-11-20T06:37:50;4.13;;;2.47;;
7181;SDS011;3632;42.724;23.298;2022-11-20T06:40:17;3.63;;;1.70;;
7181;SDS011;3632;42.724;23.298;2022-11-20T06:42:44;3.77;;;2.30;;
7181;SDS011;3632;42.724;23.298;2022-11-20T06:45:12;5.57;;;2.50;;
7181;SDS011;3632;42.724;23.298;2022-11-20T06:47:39;4.47;;;2.67;;
7181;SDS011;3632;42.724;23.298;2022-11-20T06:50:06;3.43;;;2.40;;
7181;SDS011;3632;42.724;23.298;2022-11-20T06:52:34;7.17;;;3.00;;
7181;SDS011;3632;42.724;23.298;2022-11-20T06:55:02;6.00;;;2.50;;
7181;SDS011;3632;42.724;23.298;2022-11-20T06:57:30;7.47;;;3.30;;
7181;SDS011;3632;42.724;23.298;2022-11-20T06:59:57;5.60;;;2.50;;
7181;SDS011;3632;42.724;23.298;2022-11-20T07:02:25;5.33;;;2.27;;
7181;SDS011;3632;42.724;23.298;2022-11-20T07:04:52;7.47;;;1.90;;
7181;SDS011;3632;42.724;23.298;2022-11-20T07:07:19;5.67;;;2.33;;
7181;SDS011;3632;42.724;23.298;2022-11-20T07:09:46;8.03;;;2.60;;
7181;SDS011;3632;42.724;23.298;2022-11-20T07:12:16;3.83;;;2.60;;
7181;SDS011;3632;42.724;23.298;2022-11-20T07:14:43;5.77;;;3.30;;
7181;SDS011;3632;42.724;23.298;2022-11-20T07:17:10;7.70;;;3.30;;
7181;SDS011;3632;42.724;23.298;2022-11-20T07:19:38;5.40;;;3.50;;
7181;SDS011;3632;42.724;23.298;2022-11-20T07:22:10;7.87;;;3.17;;
7181;SDS011;3632;42.724;23.298;2022-11-20T07:24:38;5.50;;;3.10;;
7181;SDS011;3632;42.724;23.298;2022-11-20T07:27:06;4.23;;;2.70;;
7181;SDS011;3632;42.724;23.298;2022-11-20T07:29:37;6.87;;;2.60;;
7181;SDS011;3632;42.724;23.298;2022-11-20T07:32:04;5.30;;;2.80;;
7181;SDS011;3632;42.724;23.298;2022-11-20T07:34:32;5.00;;;2.70;;
7181;SDS011;3632;42.724;23.298;2022-11-20T07:37:00;6.20;;;2.93;;
7181;SDS011;3632;42.724;23.298;2022-11-20T07:39:27;5.93;;;2.83;;
7181;SDS011;3632;42.724;23.298;2022-11-20T07:41:55;6.10;;;2.87;;
7181;SDS011;3632;42.724;23.298;2022-11-20T07:44:24;7.43;;;2.70;;
7181;SDS011;3632;42.724;23.298;2022-11-20T07:46:58;5.17;;;2.97;;
7181;SDS011;3632;42.724;23.298;2022-11-20T07:49:24;6.93;;;2.93;;
7181;SDS011;3632;42.724;23.298;2022-11-20T07:51:52;7.03;;;2.90;;
7181;SDS011;3632;42.724;23.298;2022-11-20T07:54:19;7.57;;;3.33;;
7181;SDS011;3632;42.724;23.298;2022-11-20T07:56:46;8.83;;;3.97;;
7181;SDS011;3632;42.724;23.298;2022-11-20T07:59:14;23.43;;;19.77;;
7181;SDS011;3632;42.724;23.298;2022-11-20T08:01:42;9.60;;;5.03;;
7181;SDS011;3632;42.724;23.298;2022-11-20T08:04:10;7.20;;;3.50;;
7181;SDS011;3632;42.724;23.298;2022-11-20T08:06:37;10.57;;;3.20;;
7181;SDS011;3632;42.724;23.298;2022-11-20T08:09:04;9.80;;;3.10;;
7181;SDS011;3632;42.724;23.298;2022-11-20T08:11:31;4.93;;;2.60;;
7181;SDS011;3632;42.724;23.298;2022-11-20T08:14:15;5.30;;;3.10;;
7181;SDS011;3632;42.724;23.298;2022-11-20T08:16:43;7.07;;;2.80;;
7181;SDS011;3632;42.724;23.298;2022-11-20T08:19:13;6.30;;;2.60;;
7181;SDS011;3632;42.724;23.298;2022-11-20T08:21:40;6.97;;;2.90;;
7181;SDS011;3632;42.724;23.298;2022-11-20T08:24:08;6.20;;;2.70;;
7181;SDS011;3632;42.724;23.298;2022-11-20T08:26:35;9.50;;;3.00;;
7181;SDS011;3632;42.724;23.298;2022-11-20T08:29:03;5.70;;;2.77;;
7181;SDS011;3632;42.724;23.298;2022-11-20T08:31:31;8.70;;;2.97;;
7181;SDS011;3632;42.724;23.298;2022-11-20T08:33:58;7.43;;;3.67;;
7181;SDS011;3632;42.724;23.298;2022-11-20T08:36:26;10.47;;;5.27;;
7181;SDS011;3632;42.724;23.298;2022-11-20T08:38:55;7.60;;;4.27;;
7181;SDS011;3632;42.724;23.298;2022-11-20T08:41:21;7.73;;;3.10;;
7181;SDS011;3632;42.724;23.298;2022-11-20T08:43:52;5.17;;;2.77;;
7181;SDS011;3632;42.724;23.298;2022-11-20T08:46:21;6.40;;;2.20;;
7181;SDS011;3632;42.724;23.298;2022-11-20T08:48:48;6.30;;;3.17;;
7181;SDS011;3632;42.724;23.298;2022-11-20T08:51:15;4.67;;;2.47;;
7181;SDS011;3632;42.724;23.298;2022-11-20T08:53:44;6.20;;;2.30;;
7181;SDS011;3632;42.724;23.298;2022-11-20T08:56:11;7.63;;;2.50;;
7181;SDS011;3632;42.724;23.298;2022-11-20T08:58:38;8.50;;;2.67;;
7181;SDS011;3632;42.724;23.298;2022-11-20T09:01:06;6.07;;;2.80;;
7181;SDS011;3632;42.724;23.298;2022-11-20T09:03:33;4.20;;;2.40;;
7181;SDS011;3632;42.724;23.298;2022-11-20T09:06:00;5.47;;;2.83;;
7181;SDS011;3632;42.724;23.298;2022-11-20T09:08:29;8.43;;;3.13;;
7181;SDS011;3632;42.724;23.298;2022-11-20T09:10:58;7.07;;;2.80;;
7181;SDS011;3632;42.724;23.298;2022-11-20T09:13:26;5.60;;;2.60;;
7181;SDS011;3632;42.724;23.298;2022-11-20T09:15:54;8.23;;;2.80;;
7181;SDS011;3632;42.724;23.298;2022-11-20T09:18:21;6.80;;;2.60;;
7181;SDS011;3632;42.724;23.298;2022-11-20T09:20:49;7.50;;;3.17;;
7181;SDS011;3632;42.724;23.298;2022-11-20T09:23:19;6.17;;;2.37;;
7181;SDS011;3632;42.724;23.298;2022-11-20T09:25:47;6.33;;;2.10;;
7181;SDS011;3632;42.724;23.298;2022-11-20T09:28:26;7.13;;;2.90;;
7181;SDS011;3632;42.724;23.298;2022-11-20T09:30:53;8.67;;;2.73;;
7181;SDS011;3632;42.724;23.298;2022-11-20T09:33:21;6.97;;;2.80;;
7181;SDS011;3632;42.724;23.298;2022-11-20T09:35:48;7.23;;;2.50;;
7181;SDS011;3632;42.724;23.298;2022-11-20T09:38:15;4.07;;;2.23;;
7181;SDS011;3632;42.724;23.298;2022-11-20T09:40:44;4.70;;;2.03;;
7181;SDS011;3632;42.724;23.298;2022-11-20T09:43:17;6.63;;;2.70;;
7181;SDS011;3632;42.724;23.298;2022-11-20T09:45:59;7.40;;;2.97;;
7181;SDS011;3632;42.724;23.298;2022-11-20T09:48:36;6.07;;;2.70;;
7181;SDS011;3632;42.724;23.298;2022-11-20T09:51:14;6.50;;;3.00;;
7181;SDS011;3632;42.724;23.298;2022-11-20T09:53:52;7.80;;;3.30;;
7181;SDS011;3632;42.724;23.298;2022-11-20T09:56:33;6.47;;;4.30;;
7181;SDS011;3632;42.724;23.298;2022-11-20T09:59:02;11.33;;;4.17;;
7181;SDS011;3632;42.724;23.298;2022-11-20T10:01:35;4.77;;;2.30;;
7181;SDS011;3632;42.724;23.298;2022-11-20T10:04:06;4.07;;;2.50;;
7181;SDS011;3632;42.724;23.298;2022-11-20T10:06:41;5.10;;;2.50;;
7181;SDS011;3632;42.724;23.298;2022-11-20T10:09:16;5.40;;;2.90;;
7181;SDS011;3632;42.724;23.298;2022-11-20T10:11:54;6.13;;;2.67;;
7181;SDS011;3632;42.724;23.298;2022-11-20T10:14:32;5.77;;;2.90;;
7181;SDS011;3632;42.724;23.298;2022-11-20T10:17:11;8.33;;;2.93;;
7181;SDS011;3632;42.724;23.298;2022-11-20T10:19:59;4.47;;;2.60;;
7181;SDS011;3632;42.724;23.298;2022-11-20T10:22:41;8.73;;;2.97;;
7181;SDS011;3632;42.724;23.298;2022-11-20T10:25:22;9.50;;;3.20;;
7181;SDS011;3632;42.724;23.298;2022-11-20T10:28:04;7.43;;;3.10;;
7181;SDS011;3632;42.724;23.298;2022-11-20T10:30:51;11.20;;;3.40;;
7181;SDS011;3632;42.724;23.298;2022-11-20T10:33:25;7.40;;;3.00;;
7181;SDS011;3632;42.724;23.298;2022-11-20T10:35:58;8.27;;;2.83;;
7181;SDS011;3632;42.724;23.298;2022-11-20T10:38:34;7.67;;;2.77;;
7181;SDS011;3632;42.724;23.298;2022-11-20T10:41:06;6.97;;;3.20;;
7181;SDS011;3632;42.724;23.298;2022-11-20T10:43:56;7.60;;;3.30;;
7181;SDS011;3632;42.724;23.298;2022-11-20T10:46:34;9.93;;;3.50;;
7181;SDS011;3632;42.724;23.298;2022-11-20T10:49:11;9.57;;;3.03;;
7181;SDS011;3632;42.724;23.298;2022-11-20T10:51:44;8.43;;;3.43;;
7181;SDS011;3632;42.724;23.298;2022-11-20T10:54:27;13.03;;;4.90;;
7181;SDS011;3632;42.724;23.298;2022-11-20T10:57:04;10.27;;;4.57;;
7181;SDS011;3632;42.724;23.298;2022-11-20T10:59:42;10.17;;;3.00;;
7181;SDS011;3632;42.724;23.298;2022-11-20T11:02:23;16.70;;;3.33;;
7181;SDS011;3632;42.724;23.298;2022-11-20T11:04:57;5.83;;;1.90;;
7181;SDS011;3632;42.724;23.298;2022-11-20T11:07:35;11.77;;;2.83;;
7181;SDS011;3632;42.724;23.298;2022-11-20T11:10:12;9.77;;;3.23;;
7181;SDS011;3632;42.724;23.298;2022-11-20T11:12:46;8.77;;;2.73;;
7181;SDS011;3632;42.724;23.298;2022-11-20T11:15:15;3.07;;;1.40;;
7181;SDS011;3632;42.724;23.298;2022-11-20T11:17:52;4.93;;;2.20;;
7181;SDS011;3632;42.724;23.298;2022-11-20T11:20:22;4.90;;;1.80;;
7181;SDS011;3632;42.724;23.298;2022-11-20T11:22:50;2.63;;;1.30;;
7181;SDS011;3632;42.724;23.298;2022-11-20T11:25:21;3.13;;;1.13;;
7181;SDS011;3632;42.724;23.298;2022-11-20T11:27:52;2.50;;;1.50;;
7181;SDS011;3632;42.724;23.298;2022-11-20T11:30:22;3.10;;;1.47;;
7181;SDS011;3632;42.724;23.298;2022-11-20T11:33:02;2.90;;;1.57;;
7181;SDS011;3632;42.724;23.298;2022-11-20T11:35:38;4.53;;;1.57;;
7181;SDS011;3632;42.724;23.298;2022-11-20T11:38:11;4.80;;;1.57;;
7181;SDS011;3632;42.724;23.298;2022-11-20T11:40:44;3.67;;;1.40;;
7181;SDS011;3632;42.724;23.298;2022-11-20T11:43:17;3.60;;;1.50;;
7181;SDS011;3632;42.724;23.298;2022-11-20T11:46:05;2.57;;;1.80;;
7181;SDS011;3632;42.724;23.298;2022-11-20T11:48:55;6.00;;;2.40;;
7181;SDS011;3632;42.724;23.298;2022-11-20T11:51:26;3.43;;;2.30;;
7181;SDS011;3632;42.724;23.298;2022-11-20T11:53:58;4.33;;;2.37;;
7181;SDS011;3632;42.724;23.298;2022-11-20T11:56:28;4.40;;;2.40;;
7181;SDS011;3632;42.724;23.298;2022-11-20T11:58:57;4.77;;;2.23;;
7181;SDS011;3632;42.724;23.298;2022-11-20T12:01:29;5.40;;;2.50;;
7181;SDS011;3632;42.724;23.298;2022-11-20T12:04:09;4.73;;;2.10;;
7181;SDS011;3632;42.724;23.298;2022-11-20T12:06:45;4.63;;;2.00;;
7181;SDS011;3632;42.724;23.298;2022-11-20T12:09:14;4.07;;;1.77;;
7181;SDS011;3632;42.724;23.298;2022-11-20T12:11:46;6.83;;;2.10;;
7181;SDS011;3632;42.724;23.298;2022-11-20T12:14:20;3.37;;;1.80;;
7181;SDS011;3632;42.724;23.298;2022-11-20T12:16:55;5.87;;;1.87;;
7181;SDS011;3632;42.724;23.298;2022-11-20T12:19:22;3.87;;;1.70;;
7181;SDS011;3632;42.724;23.298;2022-11-20T12:21:55;5.47;;;2.20;;
7181;SDS011;3632;42.724;23.298;2022-11-20T12:24:42;5.23;;;1.97;;
7181;SDS011;3632;42.724;23.298;2022-11-20T12:27:23;6.23;;;1.70;;
7181;SDS011;3632;42.724;23.298;2022-11-20T12:30:06;3.23;;;1.80;;
7181;SDS011;3632;42.724;23.298;2022-11-20T12:32:45;4.60;;;2.03;;
7181;SDS011;3632;42.724;23.298;2022-11-20T12:35:32;4.40;;;2.03;;
7181;SDS011;3632;42.724;23.298;2022-11-20T12:38:18;6.17;;;2.40;;
7181;SDS011;3632;42.724;23.298;2022-11-20T12:41:02;5.50;;;2.60;;
7181;SDS011;3632;42.724;23.298;2022-11-20T12:44:02;8.87;;;2.60;;
7181;SDS011;3632;42.724;23.298;2022-11-20T12:47:04;5.20;;;2.70;;
7181;SDS011;3632;42.724;23.298;2022-11-20T12:49:45;6.87;;;3.17;;
7181;SDS011;3632;42.724;23.298;2022-11-20T12:52:21;11.07;;;7.03;;
7181;SDS011;3632;42.724;23.298;2022-11-20T12:55:16;15.00;;;9.10;;
7181;SDS011;3632;42.724;23.298;2022-11-20T12:57:54;6.70;;;3.90;;
7181;SDS011;3632;42.724;23.298;2022-11-20T13:00:24;5.83;;;3.27;;
7181;SDS011;3632;42.724;23.298;2022-11-20T13:06:05;14.40;;;10.13;;
7181;SDS011;3632;42.724;23.298;2022-11-20T13:08:40;8.70;;;4.80;;
7181;SDS011;3632;42.724;23.298;2022-11-20T13:11:12;11.07;;;6.93;;
7181;SDS011;3632;42.724;23.298;2022-11-20T13:13:45;9.87;;;6.60;;
7181;SDS011;3632;42.724;23.298;2022-11-20T13:16:24;18.03;;;13.53;;
7181;SDS011;3632;42.724;23.298;2022-11-20T13:19:01;8.37;;;5.10;;
7181;SDS011;3632;42.724;23.298;2022-11-20T13:21:35;6.17;;;3.80;;
7181;SDS011;3632;42.724;23.298;2022-11-20T13:24:04;6.83;;;4.93;;
7181;SDS011;3632;42.724;23.298;2022-11-20T13:26:34;8.90;;;4.13;;
7181;SDS011;3632;42.724;23.298;2022-11-20T13:29:05;5.80;;;3.60;;
7181;SDS011;3632;42.724;23.298;2022-11-20T13:31:38;7.77;;;3.60;;
7181;SDS011;3632;42.724;23.298;2022-11-20T13:34:11;3.87;;;2.30;;
7181;SDS011;3632;42.724;23.298;2022-11-20T13:36:48;8.17;;;3.80;;
7181;SDS011;3632;42.724;23.298;2022-11-20T13:39:23;6.63;;;3.53;;
7181;SDS011;3632;42.724;23.298;2022-11-20T13:41:55;10.40;;;5.67;;
7181;SDS011;3632;42.724;23.298;2022-11-20T13:44:24;9.50;;;5.33;;
7181;SDS011;3632;42.724;23.298;2022-11-20T13:46:55;6.20;;;4.17;;
7181;SDS011;3632;42.724;23.298;2022-11-20T13:49:23;5.20;;;3.33;;
7181;SDS011;3632;42.724;23.298;2022-11-20T13:51:56;7.03;;;3.30;;
7181;SDS011;3632;42.724;23.298;2022-11-20T13:54:50;6.57;;;3.43;;
7181;SDS011;3632;42.724;23.298;2022-11-20T13:57:41;6.53;;;3.40;;
7181;SDS011;3632;42.724;23.298;2022-11-20T14:00:20;7.40;;;3.50;;
7181;SDS011;3632;42.724;23.298;2022-11-20T14:02:59;7.70;;;3.70;;
7181;SDS011;3632;42.724;23.298;2022-11-20T14:05:34;13.90;;;8.90;;
7181;SDS011;3632;42.724;23.298;2022-11-20T14:08:03;7.23;;;5.17;;
7181;SDS011;3632;42.724;23.298;2022-11-20T14:10:32;22.30;;;18.13;;
7181;SDS011;3632;42.724;23.298;2022-11-20T14:13:10;8.93;;;6.23;;
7181;SDS011;3632;42.724;23.298;2022-11-20T14:15:44;12.97;;;8.13;;
7181;SDS011;3632;42.724;23.298;2022-11-20T14:18:19;15.43;;;9.47;;
7181;SDS011;3632;42.724;23.298;2022-11-20T14:20:48;9.87;;;7.10;;
7181;SDS011;3632;42.724;23.298;2022-11-20T14:23:22;10.53;;;7.07;;
7181;SDS011;3632;42.724;23.298;2022-11-20T14:25:51;11.90;;;6.37;;
7181;SDS011;3632;42.724;23.298;2022-11-20T14:28:21;6.07;;;3.83;;
7181;SDS011;3632;42.724;23.298;2022-11-20T14:30:52;6.67;;;3.80;;
7181;SDS011;3632;42.724;23.298;2022-11-20T14:33:20;5.57;;;3.20;;
7181;SDS011;3632;42.724;23.298;2022-11-20T14:35:50;4.73;;;2.63;;
7181;SDS011;3632;42.724;23.298;2022-11-20T14:38:21;4.97;;;2.53;;
7181;SDS011;3632;42.724;23.298;2022-11-20T14:40:50;6.60;;;2.80;;
7181;SDS011;3632;42.724;23.298;2022-11-20T14:43:19;4.33;;;2.60;;
7181;SDS011;3632;42.724;23.298;2022-11-20T14:45:54;3.87;;;2.10;;
7181;SDS011;3632;42.724;23.298;2022-11-20T14:48:25;2.93;;;1.97;;
7181;SDS011;3632;42.724;23.298;2022-11-20T14:50:56;4.30;;;2.23;;
7181;SDS011;3632;42.724;23.298;2022-11-20T14:53:24;4.37;;;2.40;;
7181;SDS011;3632;42.724;23.298;2022-11-20T14:55:55;4.63;;;2.37;;
7181;SDS011;3632;42.724;23.298;2022-11-20T14:58:25;4.40;;;2.27;;
7181;SDS011;3632;42.724;23.298;2022-11-20T15:00:55;2.73;;;2.10;;
7181;SDS011;3632;42.724;23.298;2022-11-20T15:03:30;4.53;;;2.87;;
7181;SDS011;3632;42.724;23.298;2022-11-20T15:06:02;3.67;;;2.57;;
7181;SDS011;3632;42.724;23.298;2022-11-20T15:08:52;2.70;;;2.17;;
7181;SDS011;3632;42.724;23.298;2022-11-20T15:11:20;2.60;;;2.37;;
7181;SDS011;3632;42.724;23.298;2022-11-20T15:14:02;4.00;;;2.93;;
7181;SDS011;3632;42.724;23.298;2022-11-20T15:16:33;12.83;;;10.50;;
7181;SDS011;3632;42.724;23.298;2022-11-20T15:19:03;16.40;;;13.57;;
7181;SDS011;3632;42.724;23.298;2022-11-20T15:21:46;17.03;;;12.60;;
7181;SDS011;3632;42.724;23.298;2022-11-20T15:24:16;13.57;;;10.80;;
7181;SDS011;3632;42.724;23.298;2022-11-20T15:26:46;9.73;;;6.90;;
7181;SDS011;3632;42.724;23.298;2022-11-20T15:29:22;8.10;;;6.70;;